Time;durP1;ratioP1;P1;durP2;ratioP2;P2;SDS_P1;SDS_P2;PMS_P1;PMS_P2;Temp;Humidity;BMP_temperature;BMP_pressure;BME280_temperature;BME280_humidity;BME280_pressure;Samples;Min_cycle;Max_cycle;Signal;HPM_P1;HPM_P2
2024/03/18 00:01:32;;;;;;;4.17;2.60;;;10.60;31.10;;;;;;4971785;28;20291;-68
2024/03/18 00:03:58;;;;;;;7.47;3.50;;;10.60;30.40;;;;;;4971129;28;20189;-68
2024/03/18 00:06:24;;;;;;;7.27;3.73;;;;;;;;;;4970643;28;20464;-68
2024/03/18 00:08:50;;;;;;;3.77;2.00;;;;;;;;;;4970515;28;20227;-68
2024/03/18 00:11:17;;;;;;;4.00;2.87;;;10.70;29.10;;;;;;4970722;28;20524;-68
2024/03/18 00:13:42;;;;;;;9.00;3.80;;;10.60;29.40;;;;;;4970538;28;20505;-68
2024/03/18 00:16:08;;;;;;;4.93;3.13;;;10.60;29.90;;;;;;4970201;28;20559;-67
2024/03/18 00:18:33;;;;;;;3.10;1.83;;;10.60;29.80;;;;;;4969054;28;20185;-68
2024/03/18 00:20:59;;;;;;;3.40;2.63;;;10.60;29.30;;;;;;4970668;28;20655;-68
2024/03/18 00:23:25;;;;;;;3.70;2.73;;;10.60;29.30;;;;;;4970369;28;20205;-68
2024/03/18 00:25:51;;;;;;;4.80;2.90;;;10.60;29.20;;;;;;4969870;28;20681;-67
2024/03/18 00:28:18;;;;;;;3.43;2.27;;;10.70;28.30;;;;;;4970341;28;20462;-67
2024/03/18 00:30:45;;;;;;;4.60;3.13;;;10.70;28.40;;;;;;4970010;28;20552;-68
2024/03/18 00:33:11;;;;;;;3.63;2.10;;;10.80;26.80;;;;;;4970310;28;20500;-68
2024/03/18 00:35:37;;;;;;;3.37;2.47;;;10.80;26.40;;;;;;4968671;28;20561;-68
2024/03/18 00:38:02;;;;;;;5.37;2.70;;;10.70;26.10;;;;;;4970031;28;20184;-69
2024/03/18 00:40:28;;;;;;;5.90;2.53;;;10.70;26.40;;;;;;4970264;28;20492;-68
2024/03/18 00:42:53;;;;;;;4.83;2.60;;;10.70;27.20;;;;;;4970120;28;20268;-67
2024/03/18 00:45:19;;;;;;;6.60;2.77;;;10.70;26.10;;;;;;4969877;28;20292;-68
2024/03/18 00:47:44;;;;;;;4.47;2.10;;;10.60;26.90;;;;;;4970172;28;20170;-68
2024/03/18 00:50:11;;;;;;;4.47;2.27;;;10.60;26.80;;;;;;4970294;28;20185;-68
2024/03/18 00:52:40;;;;;;;3.80;2.27;;;10.60;27.20;;;;;;4969958;28;20166;-68
2024/03/18 00:55:10;;;;;;;3.73;2.63;;;10.60;27.00;;;;;;4970057;28;20433;-68
2024/03/18 00:57:36;;;;;;;4.53;3.17;;;10.70;26.70;;;;;;4970080;28;20425;-68
2024/03/18 01:00:06;;;;;;;4.43;2.97;;;10.60;27.20;;;;;;4984890;28;20543;-68
2024/03/18 01:02:31;;;;;;;4.60;3.20;;;10.60;27.10;;;;;;4968503;28;20518;-68
2024/03/18 01:04:57;;;;;;;5.67;2.87;;;10.50;27.20;;;;;;4969677;28;20472;-68
2024/03/18 01:07:23;;;;;;;3.93;1.87;;;10.40;27.90;;;;;;4969351;28;20267;-68
2024/03/18 01:09:49;;;;;;;6.53;3.40;;;10.40;27.90;;;;;;4969846;28;20429;-67
2024/03/18 01:12:15;;;;;;;4.03;2.77;;;10.40;28.70;;;;;;4968434;28;20564;-67
2024/03/18 01:14:40;;;;;;;5.47;2.87;;;10.40;28.70;;;;;;4969672;28;20456;-68
2024/03/18 01:17:07;;;;;;;6.27;3.23;;;;;;;;;;4969365;28;20204;-68
2024/03/18 01:19:33;;;;;;;4.50;3.20;;;10.40;27.40;;;;;;4968436;28;20209;-68
2024/03/18 01:21:58;;;;;;;4.07;2.50;;;10.40;28.10;;;;;;4969712;28;20421;-68
2024/03/18 01:24:24;;;;;;;3.83;2.93;;;10.40;28.50;;;;;;4969710;28;20474;-68
2024/03/18 01:26:49;;;;;;;5.90;3.20;;;10.40;28.50;;;;;;4969282;28;20572;-68
2024/03/18 01:29:15;;;;;;;5.73;3.40;;;10.30;29.20;;;;;;4969488;28;20193;-68
2024/03/18 01:31:40;;;;;;;5.50;3.33;;;10.40;29.20;;;;;;4969816;28;20611;-69
2024/03/18 01:34:09;;;;;;;4.17;2.80;;;10.40;28.80;;;;;;4971575;28;20666;-69
2024/03/18 01:36:34;;;;;;;5.60;3.20;;;10.40;28.90;;;;;;4970679;28;20221;-69
2024/03/18 01:39:01;;;;;;;4.13;2.67;;;10.40;28.70;;;;;;4970855;28;20979;-68
2024/03/18 01:41:27;;;;;;;3.97;3.20;;;10.40;29.30;;;;;;4969562;28;20722;-69
2024/03/18 01:43:53;;;;;;;5.90;3.70;;;10.40;29.00;;;;;;4969503;28;20647;-69
2024/03/18 01:46:19;;;;;;;5.60;3.27;;;10.40;29.10;;;;;;4969108;28;20494;-69
2024/03/18 01:48:45;;;;;;;5.57;3.07;;;10.40;28.40;;;;;;4968539;28;20795;-68
2024/03/18 01:51:11;;;;;;;3.80;2.60;;;10.40;28.70;;;;;;4969641;28;20214;-68
2024/03/18 01:53:37;;;;;;;4.40;3.20;;;10.40;27.80;;;;;;4969274;28;20842;-69
2024/03/18 01:56:05;;;;;;;6.27;3.57;;;10.30;28.30;;;;;;4968906;28;20457;-67
2024/03/18 01:58:30;;;;;;;4.93;3.10;;;10.20;29.70;;;;;;4967567;28;20189;-67
2024/03/18 02:00:56;;;;;;;3.83;3.00;;;10.20;30.00;;;;;;4969173;28;20432;-69
2024/03/18 02:03:23;;;;;;;6.63;3.00;;;10.10;30.00;;;;;;4969181;28;20185;-69
2024/03/18 02:05:49;;;;;;;3.13;2.23;;;10.10;31.00;;;;;;4968772;28;20209;-69
2024/03/18 02:08:14;;;;;;;5.73;3.73;;;10.10;31.00;;;;;;4969121;28;20923;-68
2024/03/18 02:10:41;;;;;;;4.40;2.80;;;10.10;31.10;;;;;;4968912;28;20213;-69
2024/03/18 02:13:07;;;;;;;3.50;2.40;;;10.10;30.30;;;;;;4969072;28;20229;-69
2024/03/18 02:15:32;;;;;;;5.07;2.93;;;10.10;28.90;;;;;;4969023;28;20440;-69
2024/03/18 02:17:59;;;;;;;3.90;2.97;;;10.10;28.80;;;;;;4968803;28;20425;-69
2024/03/18 02:20:25;;;;;;;4.17;2.97;;;10.10;27.80;;;;;;4968922;28;20440;-69
2024/03/18 02:22:52;;;;;;;5.60;2.47;;;10.00;28.30;;;;;;4969110;28;20420;-69
2024/03/18 02:25:18;;;;;;;6.67;2.47;;;10.00;28.40;;;;;;4968642;28;20475;-69
2024/03/18 02:27:47;;;;;;;4.50;2.27;;;10.10;28.00;;;;;;4968309;28;20429;-69
2024/03/18 02:30:14;;;;;;;6.30;2.77;;;10.10;28.10;;;;;;4969003;28;20503;-69
2024/03/18 02:32:43;;;;;;;5.73;2.53;;;10.10;27.70;;;;;;4967364;28;20429;-69
2024/03/18 02:35:11;;;;;;;3.87;2.47;;;10.10;28.40;;;;;;4970019;28;20986;-68
2024/03/18 02:37:38;;;;;;;3.30;2.60;;;10.10;28.00;;;;;;4973582;28;20428;-69
2024/03/18 02:40:08;;;;;;;5.80;3.43;;;10.20;27.30;;;;;;4973768;28;20420;-70
2024/03/18 02:42:37;;;;;;;3.97;2.20;;;10.10;27.30;;;;;;4972876;28;20841;-69
2024/03/18 02:45:11;;;;;;;5.17;2.00;;;10.10;27.50;;;;;;4973554;28;20432;-69
2024/03/18 02:47:40;;;;;;;5.13;1.93;;;10.20;26.90;;;;;;4974266;28;20523;-69
2024/03/18 02:50:06;;;;;;;7.03;2.50;;;10.20;26.20;;;;;;4973886;28;20417;-69
2024/03/18 02:52:32;;;;;;;7.30;2.63;;;10.20;26.90;;;;;;4974133;28;20548;-69
2024/03/18 02:54:58;;;;;;;3.70;2.40;;;10.20;26.90;;;;;;4975379;28;20967;-69
2024/03/18 02:57:25;;;;;;;4.40;3.10;;;10.20;26.60;;;;;;4977140;28;20419;-69
2024/03/18 02:59:50;;;;;;;2.80;2.20;;;10.20;26.90;;;;;;4978017;28;20582;-69
2024/03/18 03:02:16;;;;;;;3.47;2.57;;;10.20;26.30;;;;;;4978400;28;20417;-69
2024/03/18 03:04:41;;;;;;;11.50;3.57;;;10.20;27.20;;;;;;4976547;28;20201;-69
2024/03/18 03:07:09;;;;;;;3.93;2.40;;;10.20;25.80;;;;;;4974852;28;20239;-69
2024/03/18 03:09:35;;;;;;;4.30;2.77;;;10.20;26.20;;;;;;4990573;28;20253;-69
2024/03/18 03:12:01;;;;;;;6.03;2.70;;;;;;;;;;4975170;28;20417;-69
2024/03/18 03:14:26;;;;;;;5.33;3.20;;;10.20;25.50;;;;;;4975552;28;20841;-69
2024/03/18 03:16:52;;;;;;;4.80;2.93;;;10.30;25.20;;;;;;4976652;28;20425;-70
2024/03/18 03:19:17;;;;;;;5.60;2.80;;;10.30;25.10;;;;;;4976171;28;20185;-69
2024/03/18 03:21:43;;;;;;;4.37;2.33;;;10.20;25.10;;;;;;4970889;28;20555;-69
2024/03/18 03:24:09;;;;;;;4.13;1.97;;;10.20;24.90;;;;;;4973083;28;20613;-68
2024/03/18 03:26:34;;;;;;;4.63;2.30;;;10.20;25.90;;;;;;4974755;28;20224;-67
2024/03/18 03:29:00;;;;;;;4.50;2.53;;;10.10;26.10;;;;;;4974400;28;20653;-68
2024/03/18 03:31:26;;;;;;;4.93;2.47;;;10.10;26.80;;;;;;4974978;28;20189;-68
2024/03/18 03:33:52;;;;;;;4.93;2.97;;;10.10;27.50;;;;;;4974807;28;20520;-69
2024/03/18 03:36:18;;;;;;;8.03;2.60;;;10.00;27.80;;;;;;4973505;28;20577;-68
2024/03/18 03:38:44;;;;;;;2.90;1.90;;;10.00;27.20;;;;;;4974212;28;20520;-67
2024/03/18 03:41:09;;;;;;;4.23;2.27;;;10.00;27.60;;;;;;4975601;28;20243;-68
2024/03/18 03:43:35;;;;;;;3.73;2.47;;;10.00;27.80;;;;;;4974881;28;20181;-69
2024/03/18 03:46:02;;;;;;;2.87;1.93;;;9.90;28.90;;;;;;4973836;28;20209;-68
2024/03/18 03:48:29;;;;;;;3.30;2.13;;;9.90;29.10;;;;;;4973309;28;20207;-69
2024/03/18 03:50:55;;;;;;;5.20;2.30;;;9.90;29.40;;;;;;4974018;28;20413;-69
2024/03/18 03:53:22;;;;;;;4.20;2.43;;;9.90;29.20;;;;;;4973627;28;20425;-69
2024/03/18 03:55:52;;;;;;;3.20;1.90;;;10.00;28.10;;;;;;4973830;28;20437;-69
2024/03/18 03:58:18;;;;;;;6.50;3.07;;;9.90;28.30;;;;;;4972928;28;20523;-71
2024/03/18 04:00:44;;;;;;;5.90;3.40;;;9.90;29.00;;;;;;4972922;28;20417;-69
2024/03/18 04:03:14;;;;;;;5.70;1.93;;;10.00;26.80;;;;;;4973089;28;20413;-68
2024/03/18 04:05:40;;;;;;;4.67;2.73;;;9.90;28.30;;;;;;4971217;28;20518;-68
2024/03/18 04:08:06;;;;;;;3.20;2.23;;;9.90;28.60;;;;;;4973123;28;20425;-68
2024/03/18 04:10:31;;;;;;;5.10;3.03;;;9.90;29.00;;;;;;4972768;28;20428;-69
2024/03/18 04:12:57;;;;;;;3.77;2.33;;;9.90;29.10;;;;;;4972427;28;20639;-68
2024/03/18 04:15:23;;;;;;;4.10;2.20;;;9.80;28.40;;;;;;4971662;28;20197;-69
2024/03/18 04:17:50;;;;;;;3.83;2.40;;;9.70;31.00;;;;;;4974398;28;20201;-68
2024/03/18 04:20:21;;;;;;;3.97;2.43;;;9.70;30.50;;;;;;4974091;28;21038;-69
2024/03/18 04:22:47;;;;;;;3.60;2.40;;;9.60;30.70;;;;;;4975574;28;20943;-68
2024/03/18 04:25:13;;;;;;;4.10;2.90;;;9.60;31.60;;;;;;4975903;28;20479;-68
2024/03/18 04:27:40;;;;;;;2.87;2.10;;;9.60;32.80;;;;;;4974933;28;20440;-68
2024/03/18 04:30:06;;;;;;;6.57;3.17;;;9.70;31.60;;;;;;4974471;28;21115;-68
2024/03/18 04:32:32;;;;;;;4.27;2.10;;;9.60;31.50;;;;;;4971719;28;20564;-68
2024/03/18 04:34:57;;;;;;;4.13;2.30;;;9.60;31.50;;;;;;4972393;28;20459;-68
2024/03/18 04:37:23;;;;;;;4.43;2.93;;;9.60;31.50;;;;;;4973649;28;20181;-68
2024/03/18 04:39:48;;;;;;;4.20;2.10;;;9.60;31.90;;;;;;4971456;28;20193;-67
2024/03/18 04:42:14;;;;;;;6.70;3.27;;;9.50;33.70;;;;;;4973645;28;20205;-68
2024/03/18 04:44:40;;;;;;;3.87;2.67;;;9.60;34.80;;;;;;4973660;28;20489;-69
2024/03/18 04:47:05;;;;;;;3.27;2.30;;;9.60;33.60;;;;;;4974490;28;20217;-69
2024/03/18 04:49:31;;;;;;;6.37;2.87;;;9.60;33.20;;;;;;4973773;28;20184;-69
2024/03/18 04:51:57;;;;;;;5.80;2.20;;;9.60;33.70;;;;;;4972877;28;20186;-69
2024/03/18 04:54:22;;;;;;;3.53;2.60;;;9.60;32.70;;;;;;4975972;28;20234;-69
2024/03/18 04:56:48;;;;;;;5.20;3.53;;;9.50;34.60;;;;;;4974760;28;20233;-69
2024/03/18 04:59:13;;;;;;;6.23;2.13;;;9.60;34.60;;;;;;4974504;28;20601;-67
2024/03/18 05:01:39;;;;;;;4.80;2.50;;;9.60;34.90;;;;;;4973835;28;20259;-68
2024/03/18 05:04:05;;;;;;;4.20;2.13;;;9.60;33.70;;;;;;4973752;28;20185;-68
2024/03/18 05:06:31;;;;;;;4.90;2.67;;;9.60;34.10;;;;;;4974697;28;20205;-68
2024/03/18 05:08:57;;;;;;;4.00;2.70;;;9.60;34.00;;;;;;4975396;28;20428;-68
2024/03/18 05:11:23;;;;;;;2.77;1.80;;;9.60;34.30;;;;;;4976916;28;20619;-68
2024/03/18 05:13:49;;;;;;;3.50;3.00;;;;;;;;;;4977258;28;20413;-68
2024/03/18 05:16:14;;;;;;;2.67;1.97;;;9.70;32.50;;;;;;4975725;28;20231;-68
2024/03/18 05:18:40;;;;;;;3.77;2.13;;;9.70;33.20;;;;;;4974070;28;20421;-68
2024/03/18 05:21:05;;;;;;;4.33;3.00;;;9.80;32.80;;;;;;4973667;28;20590;-68
2024/03/18 05:23:31;;;;;;;3.50;2.30;;;9.80;31.70;;;;;;4973550;28;20189;-69
2024/03/18 05:25:56;;;;;;;3.73;2.60;;;9.80;31.70;;;;;;4974815;28;20621;-70
2024/03/18 05:28:22;;;;;;;4.33;2.47;;;;;;;;;;4974150;28;20269;-70
2024/03/18 05:30:48;;;;;;;4.23;3.10;;;9.90;42.60;;;;;;4974909;28;20177;-69
2024/03/18 05:33:13;;;;;;;4.53;3.40;;;12.20;32.90;;;;;;4976862;28;20408;-69
2024/03/18 05:35:39;;;;;;;7.13;3.23;;;9.90;31.80;;;;;;4975783;28;20307;-69
2024/03/18 05:38:05;;;;;;;2.97;2.13;;;11.00;33.40;;;;;;4974295;28;20695;-69
2024/03/18 05:40:30;;;;;;;4.13;2.10;;;9.80;31.70;;;;;;4973303;28;20192;-69
2024/03/18 05:42:57;;;;;;;2.97;2.40;;;;;;;;;;4972704;28;20178;-66
2024/03/18 05:45:23;;;;;;;3.40;2.40;;;;;;;;;;4973706;28;20345;-69
2024/03/18 05:47:49;;;;;;;3.80;1.70;;;;;;;;;;4974083;28;20912;-69
2024/03/18 05:50:16;;;;;;;2.80;1.90;;;;;;;;;;4973602;28;20431;-69
2024/03/18 05:52:42;;;;;;;9.13;2.70;;;;;;;;;;4971963;28;20916;-69
2024/03/18 05:55:08;;;;;;;3.80;1.80;;;;;;;;;;4971391;28;20445;-69
2024/03/18 05:57:34;;;;;;;5.87;2.83;;;;;;;;;;4971545;28;20420;-68
2024/03/18 06:00:00;;;;;;;2.47;1.87;;;;;;;;;;4970929;28;20495;-70
2024/03/18 06:02:26;;;;;;;3.00;2.13;;;;;;;;;;4971291;28;20733;-69
2024/03/18 06:04:52;;;;;;;3.20;2.00;;;;;;;;;;4971617;28;20432;-69
2024/03/18 06:07:21;;;;;;;3.93;2.50;;;;;;;;;;4971048;28;20428;-68
2024/03/18 06:09:47;;;;;;;6.40;2.37;;;;;;;;;;4970988;28;20788;-68
2024/03/18 06:12:14;;;;;;;4.10;2.87;;;;;;;;;;4969720;28;20433;-68
2024/03/18 06:14:40;;;;;;;2.90;2.20;;;;;;;;;;4970880;28;20900;-69
2024/03/18 06:17:06;;;;;;;3.90;1.83;;;;;;;;;;4971015;28;20823;-69
2024/03/18 06:19:33;;;;;;;3.20;2.10;;;;;;;;;;4972535;28;20460;-70
2024/03/18 06:22:02;;;;;;;3.00;1.80;;;;;;;;;;4972392;28;20425;-70
2024/03/18 06:25:54;;;;;;;4.30;2.40;;;;;;;;;;4971958;28;20409;-69
2024/03/18 06:27:14;;;;;;;5.60;3.10;;;;;;;;;;4972687;28;20480;-69
2024/03/18 06:29:40;;;;;;;3.10;1.97;;;;;;;;;;4975624;28;20445;-69
2024/03/18 06:32:07;;;;;;;3.53;2.57;;;;;;;;;;4973706;28;20486;-67
2024/03/18 06:34:33;;;;;;;4.17;2.20;;;;;;;;;;4973149;28;20490;-68
2024/03/18 06:36:59;;;;;;;5.60;2.40;;;;;;;;;;4974201;28;20432;-68
2024/03/18 06:39:25;;;;;;;4.90;3.10;;;;;;;;;;4974995;28;20412;-68
2024/03/18 06:41:51;;;;;;;7.13;4.60;;;;;;;;;;4975415;28;20491;-68
2024/03/18 06:44:17;;;;;;;7.57;4.40;;;;;;;;;;4973450;28;20413;-68
2024/03/18 06:46:43;;;;;;;8.80;4.63;;;;;;;;;;4973285;28;20521;-68
2024/03/18 06:49:09;;;;;;;7.40;4.60;;;;;;;;;;4976189;28;20777;-68
2024/03/18 06:51:35;;;;;;;7.13;5.60;;;;;;;;;;4973289;28;20413;-67
2024/03/18 06:54:01;;;;;;;6.60;5.00;;;;;;;;;;4972378;28;20467;-68
2024/03/18 06:56:27;;;;;;;7.13;5.43;;;;;;;;;;4972885;28;20834;-68
2024/03/18 06:58:53;;;;;;;10.10;6.93;;;;;;;;;;4973351;28;20424;-69
2024/03/18 07:01:19;;;;;;;7.53;5.47;;;;;;;;;;4973584;28;20413;-69
2024/03/18 07:03:45;;;;;;;8.30;5.60;;;;;;;;;;4973097;28;20428;-69
2024/03/18 07:06:12;;;;;;;7.47;4.90;;;;;;;;;;4972398;28;20720;-67
2024/03/18 07:08:38;;;;;;;6.53;5.20;;;;;;;;;;4972747;28;20413;-67
2024/03/18 07:11:04;;;;;;;5.63;4.20;;;;;;;;;;4972667;28;20500;-68
2024/03/18 07:13:30;;;;;;;7.43;5.33;;;;;;;;;;4973439;28;20780;-68
2024/03/18 07:15:58;;;;;;;10.17;4.83;;;;;;;;;;4972292;28;20486;-68
2024/03/18 07:18:24;;;;;;;6.27;4.57;;;;;;;;;;4967630;28;20409;-68
2024/03/18 07:20:52;;;;;;;5.43;4.93;;;;;;;;;;4960957;28;20414;-67
2024/03/18 07:23:21;;;;;;;10.83;4.30;;;;;;;;;;4967020;28;20425;-68
2024/03/18 07:25:47;;;;;;;13.33;5.17;;;;;;;;;;4964346;28;20477;-67
2024/03/18 07:28:13;;;;;;;6.87;4.60;;;;;;;;;;4963297;28;20429;-70
2024/03/18 07:30:39;;;;;;;7.57;5.30;;;;;;;;;;4970793;28;20430;-69
2024/03/18 07:33:06;;;;;;;8.93;5.20;;;;;;;;;;4966006;28;20562;-67
2024/03/18 07:35:32;;;;;;;5.50;4.43;;;10.50;30.40;;;;;;4959477;28;20454;-68
2024/03/18 07:37:57;;;;;;;4.43;3.87;;;10.50;30.20;;;;;;4955245;28;21560;-70
2024/03/18 07:40:23;;;;;;;6.10;4.57;;;10.60;29.90;;;;;;4955371;28;20243;-71
2024/03/18 07:42:49;;;;;;;7.50;5.20;;;10.70;29.20;;;;;;4963155;28;20182;-71
2024/03/18 07:45:16;;;;;;;7.67;5.67;;;10.70;28.00;;;;;;4953445;28;20208;-71
2024/03/18 07:47:41;;;;;;;7.90;5.87;;;10.70;27.80;;;;;;4966943;28;20421;-71
2024/03/18 07:50:07;;;;;;;7.00;5.13;;;10.70;28.80;;;;;;4966578;28;20701;-71
2024/03/18 07:52:33;;;;;;;8.30;5.10;;;10.70;29.00;;;;;;4969957;28;20194;-71
2024/03/18 07:55:00;;;;;;;5.93;4.77;;;10.80;28.00;;;;;;4972078;28;20450;-72
2024/03/18 07:57:26;;;;;;;6.40;5.40;;;10.90;28.70;;;;;;4966577;28;20189;-71
2024/03/18 07:59:52;;;;;;;8.10;6.00;;;11.00;27.40;;;;;;4966075;28;20434;-70
2024/03/18 08:02:17;;;;;;;8.00;5.40;;;11.00;27.40;;;;;;4965890;28;20512;-71
2024/03/18 08:04:43;;;;;;;8.10;5.27;;;11.10;26.70;;;;;;4966756;28;20233;-72
2024/03/18 08:07:09;;;;;;;13.60;6.77;;;11.10;27.20;;;;;;4959379;28;20300;-71
2024/03/18 08:09:35;;;;;;;6.73;5.83;;;;;;;;;;4967015;28;20742;-72
2024/03/18 08:12:00;;;;;;;6.87;5.40;;;11.30;25.80;;;;;;4967082;28;20196;-71
2024/03/18 08:14:26;;;;;;;8.73;5.97;;;11.30;25.40;;;;;;4973209;28;20512;-71
2024/03/18 08:16:52;;;;;;;5.87;5.20;;;11.40;24.50;;;;;;4972262;28;20194;-72
2024/03/18 08:19:17;;;;;;;6.90;4.10;;;11.40;24.20;;;;;;4970981;28;20505;-71
2024/03/18 08:21:43;;;;;;;7.93;5.30;;;11.40;23.90;;;;;;4971312;28;20224;-71
2024/03/18 08:24:08;;;;;;;6.73;5.07;;;11.20;24.20;;;;;;4967247;28;20191;-72
2024/03/18 08:26:34;;;;;;;5.70;4.27;;;11.20;24.90;;;;;;4967855;28;20217;-71
2024/03/18 08:29:00;;;;;;;5.13;4.43;;;11.40;23.60;;;;;;4964992;28;20194;-70
2024/03/18 08:31:26;;;;;;;6.53;4.10;;;11.40;21.90;;;;;;4964985;28;20194;-70
2024/03/18 08:33:53;;;;;;;5.27;3.83;;;11.50;21.60;;;;;;4965956;28;20517;-70
2024/03/18 08:36:19;;;;;;;4.17;2.90;;;11.50;19.90;;;;;;5077730;22;20327;-67
2024/03/18 08:38:45;;;;;;;6.90;4.43;;;11.40;19.60;;;;;;5108901;28;20501;-69
2024/03/18 08:41:10;;;;;;;7.90;4.50;;;11.40;20.30;;;;;;5108529;28;20202;-69
2024/03/18 08:43:36;;;;;;;5.93;4.17;;;11.40;20.50;;;;;;5107791;27;20229;-68
2024/03/18 08:46:06;;;;;;;6.63;4.23;;;11.30;22.10;;;;;;5097400;28;20228;-68
2024/03/18 08:48:31;;;;;;;6.00;4.23;;;11.40;21.60;;;;;;5089194;28;20612;-69
2024/03/18 08:50:57;;;;;;;7.90;4.80;;;11.40;21.70;;;;;;5088861;28;20512;-69
2024/03/18 08:53:22;;;;;;;6.07;4.20;;;11.40;22.40;;;;;;5086912;28;20183;-68
2024/03/18 08:55:49;;;;;;;5.27;3.97;;;11.40;21.30;;;;;;5087495;28;20206;-71
2024/03/18 08:58:15;;;;;;;6.17;3.60;;;11.30;22.70;;;;;;5089076;28;20770;-69
2024/03/18 09:00:40;;;;;;;6.70;4.57;;;11.40;21.70;;;;;;5095307;28;21146;-68
2024/03/18 09:03:06;;;;;;;6.90;3.70;;;11.30;21.30;;;;;;5089278;28;20420;-68
2024/03/18 09:05:32;;;;;;;4.40;3.30;;;11.30;20.80;;;;;;5089442;28;20201;-69
2024/03/18 09:07:59;;;;;;;8.20;4.73;;;11.40;21.90;;;;;;5092431;28;20653;-70
2024/03/18 09:10:25;;;;;;;6.13;3.70;;;11.40;21.20;;;;;;5092822;28;20697;-68
2024/03/18 09:12:50;;;;;;;6.30;4.73;;;11.20;22.40;;;;;;5091548;28;20418;-68
2024/03/18 09:15:16;;;;;;;8.70;4.40;;;11.20;23.10;;;;;;5092806;28;20554;-68
2024/03/18 09:17:43;;;;;;;5.20;4.70;;;11.20;24.60;;;;;;5090638;28;20543;-67
2024/03/18 09:20:16;;;;;;;4.77;4.27;;;11.20;25.20;;;;;;5090847;28;20835;-69
2024/03/18 09:22:43;;;;;;;5.53;3.43;;;11.20;26.80;;;;;;5091982;28;20935;-69
2024/03/18 09:25:09;;;;;;;5.17;4.67;;;11.40;27.00;;;;;;5108091;28;20480;-69
2024/03/18 09:27:36;;;;;;;7.63;4.73;;;11.50;25.40;;;;;;5099650;27;20418;-68
2024/03/18 09:30:02;;;;;;;6.60;4.70;;;11.50;23.60;;;;;;5068814;28;20425;-69
2024/03/18 09:32:28;;;;;;;5.97;4.57;;;11.50;23.70;;;;;;5069719;28;20428;-68
2024/03/18 09:34:53;;;;;;;7.17;5.07;;;11.50;25.00;;;;;;5073784;28;20420;-74
2024/03/18 09:37:19;;;;;;;5.60;4.17;;;11.50;25.80;;;;;;5096583;28;20672;-69
2024/03/18 09:39:45;;;;;;;7.63;4.87;;;11.50;24.10;;;;;;5094559;28;20717;-69
2024/03/18 09:42:11;;;;;;;5.57;3.97;;;11.30;24.90;;;;;;5112456;28;20422;-68
2024/03/18 09:44:38;;;;;;;6.10;4.27;;;11.30;25.50;;;;;;5112691;28;20177;-69
2024/03/18 09:47:05;;;;;;;6.53;4.33;;;11.20;26.60;;;;;;5093872;28;20478;-69
2024/03/18 09:49:33;;;;;;;7.00;3.97;;;11.20;27.50;;;;;;5112445;28;20429;-69
2024/03/18 09:51:59;;;;;;;8.33;4.37;;;11.20;27.50;;;;;;5112744;28;20800;-68
2024/03/18 09:54:25;;;;;;;6.00;4.40;;;11.20;27.50;;;;;;5113982;28;20409;-68
2024/03/18 09:57:04;;;;;;;5.67;4.77;;;11.30;28.10;;;;;;5118760;28;20534;-70
2024/03/18 09:59:30;;;;;;;7.13;4.30;;;11.50;26.50;;;;;;5114916;28;20411;-68
2024/03/18 10:01:56;;;;;;;5.37;4.33;;;11.50;26.60;;;;;;5112839;28;20427;-69
2024/03/18 10:04:21;;;;;;;7.20;4.17;;;11.60;26.60;;;;;;5098598;28;20447;-69
2024/03/18 10:06:47;;;;;;;8.60;4.83;;;11.60;24.70;;;;;;5116249;28;20556;-69
2024/03/18 10:09:15;;;;;;;5.27;4.00;;;11.60;22.90;;;;;;5116739;28;20177;-69
2024/03/18 10:11:43;;;;;;;7.67;4.63;;;11.70;23.80;;;;;;5098257;28;20253;-69
2024/03/18 10:14:09;;;;;;;5.80;4.30;;;11.90;22.70;;;;;;5116505;28;20417;-69
2024/03/18 10:16:34;;;;;;;4.40;3.53;;;11.90;21.80;;;;;;5115829;28;20443;-69
2024/03/18 10:19:00;;;;;;;5.27;4.77;;;12.00;23.00;;;;;;5097856;28;20176;-69
2024/03/18 10:21:26;;;;;;;4.70;3.80;;;12.20;24.00;;;;;;5097802;28;20219;-70
2024/03/18 10:23:55;;;;;;;6.40;4.33;;;12.40;21.50;;;;;;5098112;28;20187;-68
2024/03/18 10:26:21;;;;;;;4.77;3.80;;;12.70;25.60;;;;;;5097163;28;20465;-70
2024/03/18 10:28:47;;;;;;;7.50;4.03;;;12.80;24.50;;;;;;5097497;28;20424;-69
2024/03/18 10:31:17;;;;;;;6.50;4.10;;;13.00;16.70;;;;;;5119026;27;20438;-69
2024/03/18 10:33:46;;;;;;;9.13;4.37;;;13.10;13.60;;;;;;5115614;28;20183;-69
2024/03/18 10:36:35;;;;;;;6.80;4.10;;;13.20;13.90;;;;;;5115622;28;21030;-69
2024/03/18 10:39:09;;;;;;;4.67;3.60;;;13.30;12.60;;;;;;5116234;28;20436;-68
2024/03/18 10:41:39;;;;;;;4.87;3.80;;;13.40;12.00;;;;;;5116437;28;20405;-69
2024/03/18 10:44:16;;;;;;;4.30;3.57;;;13.30;11.30;;;;;;5099295;28;20432;-69
2024/03/18 10:46:43;;;;;;;8.10;4.43;;;13.20;11.90;;;;;;5117270;28;20538;-69
2024/03/18 10:49:17;;;;;;;3.63;2.80;;;13.10;11.80;;;;;;5100251;28;20521;-68
2024/03/18 10:51:45;;;;;;;6.60;4.63;;;13.10;14.20;;;;;;5116800;28;20447;-69
2024/03/18 10:54:15;;;;;;;5.80;3.93;;;13.10;14.40;;;;;;5117616;28;20412;-68
2024/03/18 10:56:45;;;;;;;8.17;4.70;;;13.10;15.20;;;;;;5116321;28;20434;-69
2024/03/18 10:59:14;;;;;;;5.37;3.67;;;13.00;21.20;;;;;;5116561;28;20504;-70
2024/03/18 11:01:40;;;;;;;5.30;4.17;;;13.20;19.70;;;;;;5117175;28;20429;-68
2024/03/18 11:04:21;;;;;;;4.83;3.90;;;13.20;20.30;;;;;;5116105;28;20414;-68
2024/03/18 11:06:49;;;;;;;7.07;3.40;;;13.30;20.10;;;;;;5116035;28;20200;-67
2024/03/18 11:09:17;;;;;;;3.83;2.63;;;13.10;20.60;;;;;;5116880;28;20486;-68
2024/03/18 11:11:44;;;;;;;3.43;2.50;;;13.30;18.30;;;;;;5117126;28;20504;-67
2024/03/18 11:14:13;;;;;;;3.80;2.37;;;13.60;14.20;;;;;;5114450;28;20443;-68
2024/03/18 11:16:44;;;;;;;4.03;2.27;;;13.80;13.70;;;;;;5098101;28;20448;-67
2024/03/18 11:19:20;;;;;;;4.50;3.00;;;14.00;11.20;;;;;;5116230;28;20411;-67
2024/03/18 11:21:57;;;;;;;6.00;2.70;;;14.00;10.50;;;;;;5116543;28;20908;-69
2024/03/18 11:24:23;;;;;;;4.43;2.70;;;14.10;11.10;;;;;;5116092;28;20410;-68
2024/03/18 11:27:00;;;;;;;5.80;2.83;;;14.00;12.40;;;;;;5116211;28;20799;-68
2024/03/18 11:29:39;;;;;;;4.57;3.30;;;14.00;12.50;;;;;;5115425;28;20191;-68
2024/03/18 11:32:08;;;;;;;3.90;2.70;;;13.80;18.70;;;;;;5116148;28;20417;-67
2024/03/18 11:34:36;;;;;;;4.50;3.33;;;13.90;19.70;;;;;;5115042;28;20409;-68
2024/03/18 11:37:04;;;;;;;4.63;3.40;;;14.00;18.90;;;;;;5114937;28;20463;-67
2024/03/18 11:39:30;;;;;;;5.53;3.70;;;;;;;;;;5115148;28;20468;-67
2024/03/18 11:42:03;;;;;;;6.10;3.60;;;;;;;;;;5115243;28;20403;-69
2024/03/18 11:44:29;;;;;;;5.27;3.63;;;;;;;;;;5096683;28;20406;-67
2024/03/18 11:47:05;;;;;;;3.70;3.13;;;;;;;;;;5114902;28;20457;-67
2024/03/18 11:49:31;;;;;;;5.50;3.60;;;;;;;;;;5114896;28;20402;-67
2024/03/18 11:52:00;;;;;;;5.83;3.50;;;;;;;;;;5114740;28;20411;-68
2024/03/18 11:54:27;;;;;;;6.53;3.77;;;;;;;;;;5114112;28;20430;-68
2024/03/18 11:57:04;;;;;;;5.50;3.60;;;;;;;;;;5114445;28;20421;-67
2024/03/18 11:59:30;;;;;;;5.10;3.20;;;;;;;;;;5115029;28;20414;-67
2024/03/18 12:01:58;;;;;;;9.37;4.20;;;;;;;;;;5095340;28;20433;-68
2024/03/18 12:04:24;;;;;;;4.53;3.40;;;;;;;;;;5114516;28;20405;-68
2024/03/18 12:06:53;;;;;;;5.13;4.10;;;;;;;;;;5114836;27;20470;-68
2024/03/18 12:09:22;;;;;;;6.17;3.10;;;;;;;;;;5095007;28;20431;-68
2024/03/18 12:11:48;;;;;;;6.10;3.53;;;;;;;;;;5095590;28;20421;-67
2024/03/18 12:14:14;;;;;;;8.63;3.67;;;;;;;;;;5115228;28;20417;-68
2024/03/18 12:16:44;;;;;;;7.20;3.27;;;;;;;;;;5097411;28;20506;-68
2024/03/18 12:19:10;;;;;;;6.20;3.57;;;;;;;;;;5116546;28;20414;-69
2024/03/18 12:21:39;;;;;;;6.30;3.77;;;;;;;;;;5114966;28;20444;-68
2024/03/18 12:29:38;;;;;;;6.40;3.90;;;;;;;;;;5108618;28;20464;-68
2024/03/18 12:32:05;;;;;;;6.23;3.77;;;;;;;;;;5113403;28;20912;-68
2024/03/18 12:34:32;;;;;;;4.63;2.90;;;;;;;;;;5113795;28;20905;-68
2024/03/18 12:37:01;;;;;;;3.80;3.23;;;;;;;;;;5113301;28;20449;-69
2024/03/18 12:39:29;;;;;;;4.77;3.00;;;13.70;16.10;;;;;;5112181;28;20426;-68
2024/03/18 12:42:02;;;;;;;4.67;3.10;;;13.90;16.20;;;;;;5113308;28;20826;-68
2024/03/18 12:44:28;;;;;;;3.67;2.17;;;14.20;13.70;;;;;;5113164;28;20410;-68
2024/03/18 12:46:54;;;;;;;3.30;2.37;;;14.50;10.00;;;;;;5113065;28;20489;-69
2024/03/18 12:49:23;;;;;;;3.73;2.60;;;14.40;8.20;;;;;;5113239;28;20445;-67
2024/03/18 12:51:49;;;;;;;6.80;2.87;;;14.20;7.70;;;;;;5113236;28;20173;-67
2024/03/18 12:54:14;;;;;;;3.40;2.47;;;14.00;9.60;;;;;;5113506;28;20779;-68
2024/03/18 12:56:40;;;;;;;3.77;2.90;;;14.10;11.30;;;;;;5094701;28;20236;-68
2024/03/18 12:59:05;;;;;;;2.83;1.87;;;14.20;9.50;;;;;;5113731;28;20185;-68
2024/03/18 13:01:31;;;;;;;4.33;3.43;;;14.10;8.10;;;;;;5113218;28;20188;-67
2024/03/18 13:03:58;;;;;;;4.17;2.70;;;13.90;9.70;;;;;;5112725;28;20263;-67
2024/03/18 13:06:24;;;;;;;3.70;3.03;;;13.80;11.20;;;;;;5112945;28;20458;-67
2024/03/18 13:08:56;;;;;;;3.83;2.50;;;13.80;12.30;;;;;;5112873;28;20419;-71
2024/03/18 13:11:21;;;;;;;5.37;3.33;;;13.90;12.20;;;;;;5113248;28;20231;-68
2024/03/18 13:13:47;;;;;;;5.37;3.30;;;13.70;12.20;;;;;;5112976;28;20981;-68
2024/03/18 13:16:13;;;;;;;4.87;3.33;;;13.40;12.80;;;;;;5112606;28;20801;-68